sensor_id;sensor_type;location;lat;lon;timestamp;pressure;altitude;pressure_sealevel;temperature;humidity
32081;BME280;18593;51.426;7.030;2024-01-06T00:00:42;99166.13;;;8.06;81.83
32081;BME280;18593;51.426;7.030;2024-01-06T00:03:11;99178.34;;;8.07;81.75
32081;BME280;18593;51.426;7.030;2024-01-06T00:05:40;99178.94;;;8.09;81.72
32081;BME280;18593;51.426;7.030;2024-01-06T00:08:08;99181.38;;;8.11;81.64
32081;BME280;18593;51.426;7.030;2024-01-06T00:10:35;99178.94;;;8.09;81.33
32081;BME280;18593;51.426;7.030;2024-01-06T00:13:03;99181.00;;;8.07;81.53
32081;BME280;18593;51.426;7.030;2024-01-06T00:15:31;99174.09;;;8.06;81.56
32081;BME280;18593;51.426;7.030;2024-01-06T00:18:01;99189.22;;;8.06;81.65
32081;BME280;18593;51.426;7.030;2024-01-06T00:20:28;99190.03;;;8.06;81.29
32081;BME280;18593;51.426;7.030;2024-01-06T00:22:56;99196.94;;;8.07;81.26
32081;BME280;18593;51.426;7.030;2024-01-06T00:25:24;99196.13;;;8.07;81.42
32081;BME280;18593;51.426;7.030;2024-01-06T00:27:52;99198.78;;;8.07;81.17
32081;BME280;18593;51.426;7.030;2024-01-06T00:30:19;99199.59;;;8.07;81.14
32081;BME280;18593;51.426;7.030;2024-01-06T00:32:47;99202.81;;;8.09;81.34
32081;BME280;18593;51.426;7.030;2024-01-06T00:35:16;99210.78;;;8.09;81.14
32081;BME280;18593;51.426;7.030;2024-01-06T00:37:44;99210.59;;;8.11;81.12
32081;BME280;18593;51.426;7.030;2024-01-06T00:40:12;99208.94;;;8.10;81.10
32081;BME280;18593;51.426;7.030;2024-01-06T00:42:40;99217.50;;;8.12;80.97
32081;BME280;18593;51.426;7.030;2024-01-06T00:45:09;99217.50;;;8.12;81.15
32081;BME280;18593;51.426;7.030;2024-01-06T00:47:36;99221.53;;;8.14;80.83
32081;BME280;18593;51.426;7.030;2024-01-06T00:50:05;99222.81;;;8.12;81.07
32081;BME280;18593;51.426;7.030;2024-01-06T00:52:34;99224.66;;;8.11;81.05
32081;BME280;18593;51.426;7.030;2024-01-06T00:55:02;99214.84;;;8.12;81.13
32081;BME280;18593;51.426;7.030;2024-01-06T00:57:31;99222.81;;;8.12;81.02
32081;BME280;18593;51.426;7.030;2024-01-06T00:59:58;99223.63;;;8.12;81.06
32081;BME280;18593;51.426;7.030;2024-01-06T01:02:26;99219.94;;;8.13;80.85
32081;BME280;18593;51.426;7.030;2024-01-06T01:04:53;99224.44;;;8.13;81.02
32081;BME280;18593;51.426;7.030;2024-01-06T01:07:21;99228.13;;;8.12;81.01
32081;BME280;18593;51.426;7.030;2024-01-06T01:09:50;99228.94;;;8.12;81.17
32081;BME280;18593;51.426;7.030;2024-01-06T01:12:18;99220.16;;;8.12;81.19
32081;BME280;18593;51.426;7.030;2024-01-06T01:14:45;99223.63;;;8.12;81.06
32081;BME280;18593;51.426;7.030;2024-01-06T01:17:13;99216.69;;;8.11;80.95
32081;BME280;18593;51.426;7.030;2024-01-06T01:19:41;99223.38;;;8.14;81.14
32081;BME280;18593;51.426;7.030;2024-01-06T01:22:08;99222.34;;;8.15;81.06
32081;BME280;18593;51.426;7.030;2024-01-06T01:24:36;99224.44;;;8.13;81.09
32081;BME280;18593;51.426;7.030;2024-01-06T01:27:05;99230.56;;;8.13;81.15
32081;BME280;18593;51.426;7.030;2024-01-06T01:29:32;99235.84;;;8.13;81.51
32081;BME280;18593;51.426;7.030;2024-01-06T01:32:00;99237.47;;;8.14;81.45
32081;BME280;18593;51.426;7.030;2024-01-06T01:34:28;99240.38;;;8.13;81.37
32081;BME280;18593;51.426;7.030;2024-01-06T01:36:56;99248.56;;;8.11;81.48
32081;BME280;18593;51.426;7.030;2024-01-06T01:39:23;99249.38;;;8.12;81.49
32081;BME280;18593;51.426;7.030;2024-01-06T01:41:51;99262.06;;;8.10;81.54
32081;BME280;18593;51.426;7.030;2024-01-06T01:44:21;99258.38;;;8.11;81.39
32081;BME280;18593;51.426;7.030;2024-01-06T01:46:48;99260.81;;;8.12;81.70
32081;BME280;18593;51.426;7.030;2024-01-06T01:49:16;99258.16;;;8.12;81.51
32081;BME280;18593;51.426;7.030;2024-01-06T01:51:44;99262.41;;;8.13;81.57
32081;BME280;18593;51.426;7.030;2024-01-06T01:54:11;99257.09;;;8.13;81.58
32081;BME280;18593;51.426;7.030;2024-01-06T01:56:40;99258.72;;;8.14;81.52
32081;BME280;18593;51.426;7.030;2024-01-06T01:59:12;99259.53;;;8.15;81.61
32081;BME280;18593;51.426;7.030;2024-01-06T02:01:41;99263.22;;;8.14;81.48
32081;BME280;18593;51.426;7.030;2024-01-06T02:04:09;99264.03;;;8.14;81.72
32081;BME280;18593;51.426;7.030;2024-01-06T02:06:36;99264.03;;;8.14;81.49
32081;BME280;18593;51.426;7.030;2024-01-06T02:09:04;99265.06;;;8.13;81.56
32081;BME280;18593;51.426;7.030;2024-01-06T02:11:31;99272.00;;;8.14;81.53
32081;BME280;18593;51.426;7.030;2024-01-06T02:13:59;99277.31;;;8.14;81.72
32081;BME280;18593;51.426;7.030;2024-01-06T02:16:26;99274.44;;;8.16;81.82
32081;BME280;18593;51.426;7.030;2024-01-06T02:18:55;99278.94;;;8.15;81.99
32081;BME280;18593;51.426;7.030;2024-01-06T02:21:24;99278.72;;;8.17;81.72
32081;BME280;18593;51.426;7.030;2024-01-06T02:23:54;99275.25;;;8.16;81.47
32081;BME280;18593;51.426;7.030;2024-01-06T02:26:22;99272.59;;;8.16;81.60
32081;BME280;18593;51.426;7.030;2024-01-06T02:28:50;99272.59;;;8.16;81.57
32081;BME280;18593;51.426;7.030;2024-01-06T02:31:17;99274.22;;;8.17;81.43
32081;BME280;18593;51.426;7.030;2024-01-06T02:33:45;99284.84;;;8.17;81.52
32081;BME280;18593;51.426;7.030;2024-01-06T02:36:12;99288.53;;;8.16;81.37
32081;BME280;18593;51.426;7.030;2024-01-06T02:38:40;99289.56;;;8.15;81.25
32081;BME280;18593;51.426;7.030;2024-01-06T02:41:08;99293.25;;;8.14;81.56
32081;BME280;18593;51.426;7.030;2024-01-06T02:43:36;99300.41;;;8.14;81.37
32081;BME280;18593;51.426;7.030;2024-01-06T02:46:03;99308.16;;;8.15;81.66
32081;BME280;18593;51.426;7.030;2024-01-06T02:48:31;99306.31;;;8.16;81.46
32081;BME280;18593;51.426;7.030;2024-01-06T02:50:58;99313.47;;;8.15;81.40
32081;BME280;18593;51.426;7.030;2024-01-06T02:53:26;99314.50;;;8.14;81.38
32081;BME280;18593;51.426;7.030;2024-01-06T02:55:53;99314.50;;;8.14;81.33
32081;BME280;18593;51.426;7.030;2024-01-06T02:58:22;99315.53;;;8.13;81.45
32081;BME280;18593;51.426;7.030;2024-01-06T03:00:50;99325.09;;;8.14;81.39
32081;BME280;18593;51.426;7.030;2024-01-06T03:03:17;99329.63;;;8.14;81.39
32081;BME280;18593;51.426;7.030;2024-01-06T03:05:45;99333.88;;;8.15;81.25
32081;BME280;18593;51.426;7.030;2024-01-06T03:08:15;99339.44;;;8.13;81.39
32081;BME280;18593;51.426;7.030;2024-01-06T03:10:45;99341.03;;;8.14;81.38
32081;BME280;18593;51.426;7.030;2024-01-06T03:13:12;99340.47;;;8.12;81.38
32081;BME280;18593;51.426;7.030;2024-01-06T03:15:41;99334.59;;;8.10;81.25
32081;BME280;18593;51.426;7.030;2024-01-06T03:18:09;99342.53;;;8.10;81.34
32081;BME280;18593;51.426;7.030;2024-01-06T03:20:36;99336.63;;;8.08;81.24
32081;BME280;18593;51.426;7.030;2024-01-06T03:23:04;99338.47;;;8.08;81.18
32081;BME280;18593;51.426;7.030;2024-01-06T03:25:31;99341.13;;;8.08;81.22
32081;BME280;18593;51.426;7.030;2024-01-06T03:27:59;99347.84;;;8.10;81.04
32081;BME280;18593;51.426;7.030;2024-01-06T03:30:26;99351.31;;;8.11;81.18
32081;BME280;18593;51.426;7.030;2024-01-06T03:32:55;99357.44;;;8.11;81.03
32081;BME280;18593;51.426;7.030;2024-01-06T03:35:22;99361.72;;;8.12;80.91
32081;BME280;18593;51.426;7.030;2024-01-06T03:37:49;99364.00;;;8.09;80.95
32081;BME280;18593;51.426;7.030;2024-01-06T03:40:17;99374.84;;;8.07;81.07
32081;BME280;18593;51.426;7.030;2024-01-06T03:42:45;99367.31;;;8.04;80.71
32081;BME280;18593;51.426;7.030;2024-01-06T03:45:12;99369.00;;;7.98;80.00
32081;BME280;18593;51.426;7.030;2024-01-06T03:47:40;99386.41;;;7.94;79.85
32081;BME280;18593;51.426;7.030;2024-01-06T03:50:09;99393.38;;;7.95;79.65
32081;BME280;18593;51.426;7.030;2024-01-06T03:52:37;99393.13;;;7.97;79.62
32081;BME280;18593;51.426;7.030;2024-01-06T03:55:07;99391.81;;;7.88;78.52
32081;BME280;18593;51.426;7.030;2024-01-06T03:57:34;99399.59;;;7.83;78.69
32081;BME280;18593;51.426;7.030;2024-01-06T04:00:03;99407.34;;;7.84;78.82
32081;BME280;18593;51.426;7.030;2024-01-06T04:02:31;99411.69;;;7.79;78.36
32081;BME280;18593;51.426;7.030;2024-01-06T04:04:58;99407.84;;;7.74;77.65
32081;BME280;18593;51.426;7.030;2024-01-06T04:07:26;99414.47;;;7.65;76.53
32081;BME280;18593;51.426;7.030;2024-01-06T04:10:03;99411.00;;;7.65;77.24
32081;BME280;18593;51.426;7.030;2024-01-06T04:12:31;99415.34;;;7.59;76.87
32081;BME280;18593;51.426;7.030;2024-01-06T04:14:58;99412.16;;;7.51;76.51
32081;BME280;18593;51.426;7.030;2024-01-06T04:17:25;99411.94;;;7.52;76.68
32081;BME280;18593;51.426;7.030;2024-01-06T04:19:54;99413.41;;;7.48;76.59
32081;BME280;18593;51.426;7.030;2024-01-06T04:22:22;99425.69;;;7.42;76.02
32081;BME280;18593;51.426;7.030;2024-01-06T04:24:51;99416.47;;;7.45;76.64
32081;BME280;18593;51.426;7.030;2024-01-06T04:27:18;99420.31;;;7.49;76.80
32081;BME280;18593;51.426;7.030;2024-01-06T04:29:46;99415.41;;;7.53;76.56
32081;BME280;18593;51.426;7.030;2024-01-06T04:32:14;99427.25;;;7.50;76.26
32081;BME280;18593;51.426;7.030;2024-01-06T04:34:41;99428.88;;;7.51;76.59
32081;BME280;18593;51.426;7.030;2024-01-06T04:37:09;99426.66;;;7.48;75.90
32081;BME280;18593;51.426;7.030;2024-01-06T04:39:36;99429.31;;;7.48;76.28
32081;BME280;18593;51.426;7.030;2024-01-06T04:42:06;99430.50;;;7.52;76.64
32081;BME280;18593;51.426;7.030;2024-01-06T04:44:33;99432.13;;;7.53;76.45
32081;BME280;18593;51.426;7.030;2024-01-06T04:47:01;99423.72;;;7.56;76.29
32081;BME280;18593;51.426;7.030;2024-01-06T04:49:28;99430.06;;;7.55;76.29
32081;BME280;18593;51.426;7.030;2024-01-06T04:51:56;99434.34;;;7.56;76.30
32081;BME280;18593;51.426;7.030;2024-01-06T04:54:23;99436.78;;;7.58;75.87
32081;BME280;18593;51.426;7.030;2024-01-06T04:56:51;99440.25;;;7.58;75.84
32081;BME280;18593;51.426;7.030;2024-01-06T04:59:20;99437.00;;;7.56;75.97
32081;BME280;18593;51.426;7.030;2024-01-06T05:01:48;99442.28;;;7.56;76.40
32081;BME280;18593;51.426;7.030;2024-01-06T05:04:17;99441.50;;;7.56;75.99
32081;BME280;18593;51.426;7.030;2024-01-06T05:06:47;99445.63;;;7.52;75.90
32081;BME280;18593;51.426;7.030;2024-01-06T05:09:16;99441.13;;;7.52;76.24
32081;BME280;18593;51.426;7.030;2024-01-06T05:11:43;99449.91;;;7.53;76.39
32081;BME280;18593;51.426;7.030;2024-01-06T05:14:11;99448.16;;;7.40;75.30
32081;BME280;18593;51.426;7.030;2024-01-06T05:16:40;99461.00;;;7.43;75.79
32081;BME280;18593;51.426;7.030;2024-01-06T05:19:08;99461.56;;;7.45;75.88
32081;BME280;18593;51.426;7.030;2024-01-06T05:21:36;99456.50;;;7.43;75.59
32081;BME280;18593;51.426;7.030;2024-01-06T05:24:05;99460.75;;;7.44;75.79
32081;BME280;18593;51.426;7.030;2024-01-06T05:26:33;99467.69;;;7.45;75.75
32081;BME280;18593;51.426;7.030;2024-01-06T05:29:00;99470.16;;;7.47;75.90
32081;BME280;18593;51.426;7.030;2024-01-06T05:31:29;99470.16;;;7.47;76.01
32081;BME280;18593;51.426;7.030;2024-01-06T05:33:58;99473.38;;;7.49;75.82
32081;BME280;18593;51.426;7.030;2024-01-06T05:36:26;99473.38;;;7.49;75.84
32081;BME280;18593;51.426;7.030;2024-01-06T05:38:53;99463.00;;;7.47;75.45
32081;BME280;18593;51.426;7.030;2024-01-06T05:41:20;99472.19;;;7.45;75.16
32081;BME280;18593;51.426;7.030;2024-01-06T05:43:48;99476.25;;;7.47;75.59
32081;BME280;18593;51.426;7.030;2024-01-06T05:46:21;99478.69;;;7.49;75.49
32081;BME280;18593;51.426;7.030;2024-01-06T05:48:49;99485.03;;;7.48;75.59
32081;BME280;18593;51.426;7.030;2024-01-06T05:51:18;99486.25;;;7.45;75.59
32081;BME280;18593;51.426;7.030;2024-01-06T05:53:45;99489.94;;;7.44;75.36
32081;BME280;18593;51.426;7.030;2024-01-06T05:56:22;99491.78;;;7.44;75.17
32081;BME280;18593;51.426;7.030;2024-01-06T05:58:51;99490.81;;;7.38;74.93
32081;BME280;18593;51.426;7.030;2024-01-06T06:01:19;99505.09;;;7.37;74.94
32081;BME280;18593;51.426;7.030;2024-01-06T06:03:48;99501.63;;;7.37;75.08
32081;BME280;18593;51.426;7.030;2024-01-06T06:06:17;99503.28;;;7.31;74.84
32081;BME280;18593;51.426;7.030;2024-01-06T06:08:46;99505.28;;;7.36;74.87
32081;BME280;18593;51.426;7.030;2024-01-06T06:11:14;99504.88;;;7.39;75.25
32081;BME280;18593;51.426;7.030;2024-01-06T06:13:43;99508.56;;;7.38;74.91
32081;BME280;18593;51.426;7.030;2024-01-06T06:16:10;99508.56;;;7.38;74.96
32081;BME280;18593;51.426;7.030;2024-01-06T06:18:39;99517.34;;;7.38;75.07
32081;BME280;18593;51.426;7.030;2024-01-06T06:21:07;99523.44;;;7.39;75.12
32081;BME280;18593;51.426;7.030;2024-01-06T06:23:36;99524.47;;;7.38;75.01
32081;BME280;18593;51.426;7.030;2024-01-06T06:26:05;99523.06;;;7.35;74.58
32081;BME280;18593;51.426;7.030;2024-01-06T06:28:34;99528.13;;;7.37;74.90
32081;BME280;18593;51.426;7.030;2024-01-06T06:31:01;99533.88;;;7.34;74.52
32081;BME280;18593;51.426;7.030;2024-01-06T06:33:29;99534.69;;;7.34;74.69
32081;BME280;18593;51.426;7.030;2024-01-06T06:35:57;99554.66;;;7.37;75.03
32081;BME280;18593;51.426;7.030;2024-01-06T06:38:26;99556.31;;;7.38;74.85
32081;BME280;18593;51.426;7.030;2024-01-06T06:40:54;99557.31;;;7.37;74.68
32081;BME280;18593;51.426;7.030;2024-01-06T06:43:22;99560.81;;;7.37;74.51
32081;BME280;18593;51.426;7.030;2024-01-06T06:45:50;99567.94;;;7.37;75.08
32081;BME280;18593;51.426;7.030;2024-01-06T06:48:18;99564.28;;;7.38;74.79
32081;BME280;18593;51.426;7.030;2024-01-06T06:50:46;99571.41;;;7.37;74.44
32081;BME280;18593;51.426;7.030;2024-01-06T06:53:13;99575.94;;;7.30;74.49
32081;BME280;18593;51.426;7.030;2024-01-06T06:55:43;99575.34;;;7.21;74.41
32081;BME280;18593;51.426;7.030;2024-01-06T06:58:15;99578.63;;;7.23;75.04
32081;BME280;18593;51.426;7.030;2024-01-06T07:00:43;99584.50;;;7.26;75.06
32081;BME280;18593;51.426;7.030;2024-01-06T07:03:10;99589.41;;;7.29;75.30
32081;BME280;18593;51.426;7.030;2024-01-06T07:05:40;99593.09;;;7.28;74.93
32081;BME280;18593;51.426;7.030;2024-01-06T07:08:07;99601.84;;;7.28;75.39
32081;BME280;18593;51.426;7.030;2024-01-06T07:10:35;99602.88;;;7.27;75.60
32081;BME280;18593;51.426;7.030;2024-01-06T07:13:03;99609.81;;;7.28;75.31
32081;BME280;18593;51.426;7.030;2024-01-06T07:15:32;99613.09;;;7.23;75.21
32081;BME280;18593;51.426;7.030;2024-01-06T07:18:00;99622.44;;;7.26;75.73
32081;BME280;18593;51.426;7.030;2024-01-06T07:20:28;99628.56;;;7.27;75.82
32081;BME280;18593;51.426;7.030;2024-01-06T07:22:55;99628.56;;;7.27;75.52
32081;BME280;18593;51.426;7.030;2024-01-06T07:25:23;99631.03;;;7.21;75.42
32081;BME280;18593;51.426;7.030;2024-01-06T07:27:51;99636.16;;;7.23;75.47
32081;BME280;18593;51.426;7.030;2024-01-06T07:30:19;99628.19;;;7.23;75.96
32081;BME280;18593;51.426;7.030;2024-01-06T07:32:48;99640.22;;;7.26;75.81
32081;BME280;18593;51.426;7.030;2024-01-06T07:35:18;99645.31;;;7.20;75.57
32081;BME280;18593;51.426;7.030;2024-01-06T07:37:45;99647.38;;;7.18;75.71
32081;BME280;18593;51.426;7.030;2024-01-06T07:40:13;99649.44;;;7.10;75.66
32081;BME280;18593;51.426;7.030;2024-01-06T07:42:43;99651.69;;;7.06;75.46
32081;BME280;18593;51.426;7.030;2024-01-06T07:45:10;99660.50;;;6.93;75.61
32081;BME280;18593;51.426;7.030;2024-01-06T07:47:42;99659.88;;;6.91;76.01
32081;BME280;18593;51.426;7.030;2024-01-06T07:50:12;99671.13;;;6.93;75.73
32081;BME280;18593;51.426;7.030;2024-01-06T07:52:39;99660.91;;;6.90;76.20
32081;BME280;18593;51.426;7.030;2024-01-06T07:55:07;99672.31;;;6.91;76.33
32081;BME280;18593;51.426;7.030;2024-01-06T07:57:35;99678.25;;;6.86;76.03
32081;BME280;18593;51.426;7.030;2024-01-06T08:00:03;99690.06;;;6.90;76.26
32081;BME280;18593;51.426;7.030;2024-01-06T08:02:38;99682.53;;;6.87;76.30
32081;BME280;18593;51.426;7.030;2024-01-06T08:05:06;99697.59;;;6.87;76.71
32081;BME280;18593;51.426;7.030;2024-01-06T08:07:35;99692.94;;;6.82;76.20
32081;BME280;18593;51.426;7.030;2024-01-06T08:10:05;99704.78;;;6.80;76.67
32081;BME280;18593;51.426;7.030;2024-01-06T08:12:34;99707.84;;;6.83;76.13
32081;BME280;18593;51.426;7.030;2024-01-06T08:15:03;99710.47;;;6.70;75.58
32081;BME280;18593;51.426;7.030;2024-01-06T08:17:30;99716.38;;;6.65;76.08
32081;BME280;18593;51.426;7.030;2024-01-06T08:19:58;99721.25;;;6.68;76.54
32081;BME280;18593;51.426;7.030;2024-01-06T08:22:26;99715.34;;;6.73;75.88
32081;BME280;18593;51.426;7.030;2024-01-06T08:24:55;99728.22;;;6.69;76.24
32081;BME280;18593;51.426;7.030;2024-01-06T08:27:22;99726.78;;;6.74;75.93
32081;BME280;18593;51.426;7.030;2024-01-06T08:29:50;99729.44;;;6.74;76.17
32081;BME280;18593;51.426;7.030;2024-01-06T08:32:18;99743.69;;;6.72;76.32
32081;BME280;18593;51.426;7.030;2024-01-06T08:34:45;99744.69;;;6.78;76.37
32081;BME280;18593;51.426;7.030;2024-01-06T08:37:13;99747.16;;;6.80;76.08
32081;BME280;18593;51.426;7.030;2024-01-06T08:39:41;99746.34;;;6.72;75.94
32081;BME280;18593;51.426;7.030;2024-01-06T08:42:10;99753.69;;;6.64;75.99
32081;BME280;18593;51.426;7.030;2024-01-06T08:44:37;99755.28;;;6.58;76.55
32081;BME280;18593;51.426;7.030;2024-01-06T08:47:05;99761.66;;;6.64;76.62
32081;BME280;18593;51.426;7.030;2024-01-06T08:49:34;99763.66;;;6.68;76.57
32081;BME280;18593;51.426;7.030;2024-01-06T08:52:04;99771.84;;;6.74;76.35
32081;BME280;18593;51.426;7.030;2024-01-06T08:54:32;99769.19;;;6.74;76.48
32081;BME280;18593;51.426;7.030;2024-01-06T08:57:00;99779.16;;;6.78;76.88
32081;BME280;18593;51.426;7.030;2024-01-06T08:59:29;99785.69;;;6.76;76.40
32081;BME280;18593;51.426;7.030;2024-01-06T09:01:57;99791.00;;;6.76;76.29
32081;BME280;18593;51.426;7.030;2024-01-06T09:04:24;99795.91;;;6.79;76.04
32081;BME280;18593;51.426;7.030;2024-01-06T09:06:52;99792.22;;;6.80;75.68
32081;BME280;18593;51.426;7.030;2024-01-06T09:09:20;99806.06;;;6.82;76.15
32081;BME280;18593;51.426;7.030;2024-01-06T09:11:49;99803.41;;;6.82;75.56
32081;BME280;18593;51.426;7.030;2024-01-06T09:14:17;99809.53;;;6.76;75.58
32081;BME280;18593;51.426;7.030;2024-01-06T09:16:47;99817.09;;;6.79;75.93
32081;BME280;18593;51.426;7.030;2024-01-06T09:19:14;99819.31;;;6.82;75.68
32081;BME280;18593;51.426;7.030;2024-01-06T09:21:42;99820.34;;;6.81;75.09
32081;BME280;18593;51.426;7.030;2024-01-06T09:24:10;99827.28;;;6.82;75.28
32081;BME280;18593;51.426;7.030;2024-01-06T09:26:37;99822.59;;;6.84;75.18
32081;BME280;18593;51.426;7.030;2024-01-06T09:29:05;99825.25;;;6.84;75.22
32081;BME280;18593;51.426;7.030;2024-01-06T09:31:33;99832.19;;;6.85;75.40
32081;BME280;18593;51.426;7.030;2024-01-06T09:34:02;99829.53;;;6.85;75.30
32081;BME280;18593;51.426;7.030;2024-01-06T09:36:31;99845.84;;;6.88;75.38
32081;BME280;18593;51.426;7.030;2024-01-06T09:38:59;99844.41;;;6.86;75.12
32081;BME280;18593;51.426;7.030;2024-01-06T09:41:26;99843.59;;;6.85;75.41
32081;BME280;18593;51.426;7.030;2024-01-06T09:43:53;99850.69;;;6.78;75.63
32081;BME280;18593;51.426;7.030;2024-01-06T09:46:26;99852.16;;;6.81;75.70
32081;BME280;18593;51.426;7.030;2024-01-06T09:48:55;99855.41;;;6.83;75.88
32081;BME280;18593;51.426;7.030;2024-01-06T09:51:25;99860.31;;;6.86;75.67
32081;BME280;18593;51.426;7.030;2024-01-06T09:53:59;99857.88;;;6.84;75.53
32081;BME280;18593;51.426;7.030;2024-01-06T09:56:27;99857.06;;;6.84;75.28
32081;BME280;18593;51.426;7.030;2024-01-06T09:58:56;99864.00;;;6.85;75.55
32081;BME280;18593;51.426;7.030;2024-01-06T10:01:24;99866.63;;;6.85;75.26
32081;BME280;18593;51.426;7.030;2024-01-06T10:03:51;99872.31;;;6.82;74.97
32081;BME280;18593;51.426;7.030;2024-01-06T10:06:19;99872.53;;;6.80;75.06
32081;BME280;18593;51.426;7.030;2024-01-06T10:08:51;99886.59;;;6.81;75.08
32081;BME280;18593;51.426;7.030;2024-01-06T10:11:19;99882.13;;;6.81;75.37
32081;BME280;18593;51.426;7.030;2024-01-06T10:13:49;99885.41;;;6.83;74.91
32081;BME280;18593;51.426;7.030;2024-01-06T10:16:18;99886.59;;;6.81;74.68
32081;BME280;18593;51.426;7.030;2024-01-06T10:18:46;99888.22;;;6.82;75.00
32081;BME280;18593;51.426;7.030;2024-01-06T10:21:14;99892.72;;;6.81;75.25
32081;BME280;18593;51.426;7.030;2024-01-06T10:23:43;99895.75;;;6.78;74.85
32081;BME280;18593;51.426;7.030;2024-01-06T10:26:14;99901.69;;;6.80;74.82
32081;BME280;18593;51.426;7.030;2024-01-06T10:28:43;99906.56;;;6.70;74.96
32081;BME280;18593;51.426;7.030;2024-01-06T10:31:11;99902.47;;;6.67;75.08
32081;BME280;18593;51.426;7.030;2024-01-06T10:33:40;99908.19;;;6.64;75.04
32081;BME280;18593;51.426;7.030;2024-01-06T10:36:08;99912.84;;;6.62;75.21
32081;BME280;18593;51.426;7.030;2024-01-06T10:38:36;99899.59;;;6.62;74.70
32081;BME280;18593;51.426;7.030;2024-01-06T10:41:05;99910.00;;;6.64;74.54
32081;BME280;18593;51.426;7.030;2024-01-06T10:43:38;99914.25;;;6.58;74.90
32081;BME280;18593;51.426;7.030;2024-01-06T10:46:08;99913.44;;;6.58;74.87
32081;BME280;18593;51.426;7.030;2024-01-06T10:48:38;99919.16;;;6.61;75.24
32081;BME280;18593;51.426;7.030;2024-01-06T10:51:09;99912.63;;;6.57;75.04
32081;BME280;18593;51.426;7.030;2024-01-06T10:53:37;99913.44;;;6.58;75.05
32081;BME280;18593;51.426;7.030;2024-01-06T10:56:10;99916.91;;;6.58;75.03
32081;BME280;18593;51.426;7.030;2024-01-06T10:58:40;99912.44;;;6.59;74.90
32081;BME280;18593;51.426;7.030;2024-01-06T11:01:10;99915.28;;;6.57;74.65
32081;BME280;18593;51.426;7.030;2024-01-06T11:03:39;99922.63;;;6.55;75.09
32081;BME280;18593;51.426;7.030;2024-01-06T11:06:08;99924.63;;;6.53;75.13
32081;BME280;18593;51.426;7.030;2024-01-06T11:08:44;99919.75;;;6.50;74.47
32081;BME280;18593;51.426;7.030;2024-01-06T11:11:16;99913.63;;;6.50;74.43
32081;BME280;18593;51.426;7.030;2024-01-06T11:13:47;99911.59;;;6.52;74.33
32081;BME280;18593;51.426;7.030;2024-01-06T11:16:36;99913.44;;;6.51;74.52
32081;BME280;18593;51.426;7.030;2024-01-06T11:19:42;99911.78;;;6.50;74.79
32081;BME280;18593;51.426;7.030;2024-01-06T11:22:30;99915.47;;;6.49;74.19
32081;BME280;18593;51.426;7.030;2024-01-06T11:25:05;99914.84;;;6.47;73.98
32081;BME280;18593;51.426;7.030;2024-01-06T11:27:34;99918.50;;;6.46;74.23
32081;BME280;18593;51.426;7.030;2024-01-06T11:30:06;99927.88;;;6.49;74.13
32081;BME280;18593;51.426;7.030;2024-01-06T11:32:40;99921.75;;;6.48;74.31
32081;BME280;18593;51.426;7.030;2024-01-06T11:35:12;99918.72;;;6.51;74.39
32081;BME280;18593;51.426;7.030;2024-01-06T11:37:53;99920.13;;;6.54;74.19
32081;BME280;18593;51.426;7.030;2024-01-06T11:40:30;99921.38;;;6.51;74.30
32081;BME280;18593;51.426;7.030;2024-01-06T11:43:02;99926.06;;;6.49;73.89
32081;BME280;18593;51.426;7.030;2024-01-06T11:45:32;99934.00;;;6.49;73.89
32081;BME280;18593;51.426;7.030;2024-01-06T11:48:01;99931.09;;;6.44;74.00
32081;BME280;18593;51.426;7.030;2024-01-06T11:50:31;99918.88;;;6.43;73.71
32081;BME280;18593;51.426;7.030;2024-01-06T11:53:00;99922.91;;;6.32;73.69
32081;BME280;18593;51.426;7.030;2024-01-06T11:55:32;99927.19;;;6.27;74.36
32081;BME280;18593;51.426;7.030;2024-01-06T11:58:02;99926.38;;;6.33;74.32
32081;BME280;18593;51.426;7.030;2024-01-06T12:00:32;99933.13;;;6.35;74.38
32081;BME280;18593;51.426;7.030;2024-01-06T12:03:03;99933.94;;;6.36;74.14
32081;BME280;18593;51.426;7.030;2024-01-06T12:05:31;99935.13;;;6.27;74.36
32081;BME280;18593;51.426;7.030;2024-01-06T12:08:02;99928.34;;;6.17;74.14
32081;BME280;18593;51.426;7.030;2024-01-06T12:10:32;99931.81;;;6.18;74.66
32081;BME280;18593;51.426;7.030;2024-01-06T12:13:02;99939.72;;;6.11;74.61
32081;BME280;18593;51.426;7.030;2024-01-06T12:15:32;99937.25;;;6.10;74.92
32081;BME280;18593;51.426;7.030;2024-01-06T12:18:03;99944.22;;;6.11;74.98
32081;BME280;18593;51.426;7.030;2024-01-06T12:20:31;99948.03;;;6.08;74.69
32081;BME280;18593;51.426;7.030;2024-01-06T12:22:59;99949.84;;;6.01;74.65
32081;BME280;18593;51.426;7.030;2024-01-06T12:25:31;99946.63;;;5.84;73.93
32081;BME280;18593;51.426;7.030;2024-01-06T12:28:02;99947.22;;;5.80;74.14
32081;BME280;18593;51.426;7.030;2024-01-06T12:30:33;99950.53;;;5.88;74.77
32081;BME280;18593;51.426;7.030;2024-01-06T12:33:01;99943.06;;;5.92;74.23
32081;BME280;18593;51.426;7.030;2024-01-06T12:35:30;99951.44;;;5.96;74.28
32081;BME280;18593;51.426;7.030;2024-01-06T12:37:58;99953.88;;;5.97;73.51
32081;BME280;18593;51.426;7.030;2024-01-06T12:40:25;99950.22;;;5.98;73.69
32081;BME280;18593;51.426;7.030;2024-01-06T12:42:54;99958.16;;;5.98;73.44
32081;BME280;18593;51.426;7.030;2024-01-06T12:45:23;99953.47;;;6.00;73.41
32081;BME280;18593;51.426;7.030;2024-01-06T12:47:52;99956.78;;;6.02;73.44
32081;BME280;18593;51.426;7.030;2024-01-06T12:50:20;99960.81;;;5.98;72.92
32081;BME280;18593;51.426;7.030;2024-01-06T12:52:48;99967.94;;;5.98;73.24
32081;BME280;18593;51.426;7.030;2024-01-06T12:55:15;99963.69;;;6.03;73.17
32081;BME280;18593;51.426;7.030;2024-01-06T12:57:43;99961.47;;;6.07;72.64
32081;BME280;18593;51.426;7.030;2024-01-06T13:00:12;99957.81;;;6.08;72.82
32081;BME280;18593;51.426;7.030;2024-01-06T13:02:40;99961.06;;;6.03;72.19
32081;BME280;18593;51.426;7.030;2024-01-06T13:05:09;99965.50;;;5.96;72.43
32081;BME280;18593;51.426;7.030;2024-01-06T13:07:39;99971.97;;;5.93;72.26
32081;BME280;18593;51.426;7.030;2024-01-06T13:10:08;99975.88;;;5.98;72.67
32081;BME280;18593;51.426;7.030;2024-01-06T13:12:36;99970.38;;;5.99;72.76
32081;BME280;18593;51.426;7.030;2024-01-06T13:15:06;99971.03;;;6.01;72.88
32081;BME280;18593;51.426;7.030;2024-01-06T13:17:37;99979.31;;;5.91;72.39